createdAt,value
2017-05-06T00:00:22.402Z,100
2017-05-06T00:01:23.177Z,100
2017-05-06T00:02:24.205Z,100
2017-05-06T00:03:24.980Z,100
2017-05-06T00:04:25.754Z,100
2017-05-06T00:05:26.532Z,100
2017-05-06T00:06:27.304Z,100
2017-05-06T00:07:28.381Z,99
2017-05-06T00:08:29.158Z,100
2017-05-06T00:09:29.934Z,100
2017-05-06T00:10:30.710Z,100
2017-05-06T00:11:31.679Z,100
2017-05-06T00:12:32.706Z,100
2017-05-06T00:13:33.482Z,100
2017-05-06T00:14:34.261Z,100
2017-05-06T00:15:35.033Z,100
2017-05-06T00:16:35.810Z,100
2017-05-06T00:17:36.836Z,100
2017-05-06T00:18:37.610Z,100
2017-05-06T00:19:38.384Z,100
2017-05-06T00:20:39.160Z,100
2017-05-06T00:21:39.935Z,100
2017-05-06T00:22:40.959Z,100
2017-05-06T00:23:41.738Z,100
2017-05-06T00:24:42.515Z,100
2017-05-06T00:25:43.291Z,100
2017-05-06T00:26:44.069Z,100
2017-05-06T00:27:45.145Z,100
2017-05-06T00:28:45.918Z,99
2017-05-06T00:29:46.887Z,100
2017-05-06T00:30:47.661Z,99
2017-05-06T00:31:48.437Z,100
2017-05-06T00:32:49.463Z,100
2017-05-06T00:33:50.240Z,100
2017-05-06T00:34:51.019Z,100
2017-05-06T00:35:51.793Z,100
2017-05-06T00:36:52.568Z,100
2017-05-06T00:37:53.596Z,100
2017-05-06T00:38:54.366Z,100
2017-05-06T00:39:55.143Z,100
2017-05-06T00:40:55.922Z,100
2017-05-06T00:41:56.697Z,99
2017-05-06T00:42:57.723Z,100
2017-05-06T00:43:58.499Z,100
2017-05-06T00:44:59.272Z,100
2017-05-06T00:46:00.049Z,100
2017-05-06T00:47:00.826Z,100
2017-05-06T00:48:01.850Z,100
2017-05-06T00:49:02.626Z,100
2017-05-06T00:50:03.403Z,100
2017-05-06T00:51:04.175Z,100
2017-05-06T00:52:04.955Z,100
2017-05-06T00:53:05.978Z,100
2017-05-06T00:54:06.754Z,100
2017-05-06T00:55:07.531Z,100
2017-05-06T00:56:08.307Z,100
2017-05-06T00:57:09.081Z,100
2017-05-06T00:58:10.105Z,100
2017-05-06T00:59:10.883Z,100
2017-05-06T01:00:11.659Z,100
2017-05-06T01:01:12.436Z,100
2017-05-06T01:02:13.404Z,100
2017-05-06T01:03:14.430Z,100
2017-05-06T01:04:15.207Z,100
2017-05-06T01:05:15.981Z,100
2017-05-06T01:06:16.754Z,100
2017-05-06T01:07:17.528Z,100
2017-05-06T01:08:18.552Z,100
2017-05-06T01:09:19.329Z,100
2017-05-06T01:10:20.103Z,100
2017-05-06T01:11:20.880Z,100
2017-05-06T01:12:21.654Z,100
2017-05-06T01:13:22.677Z,99
2017-05-06T01:14:23.452Z,100
2017-05-06T01:15:24.228Z,99
2017-05-06T01:16:25.005Z,99
2017-05-06T01:17:25.778Z,99
2017-05-06T01:18:26.804Z,99
2017-05-06T01:19:27.582Z,99
2017-05-06T01:20:28.356Z,99
2017-05-06T01:21:29.131Z,99
2017-05-06T01:22:29.906Z,99
2017-05-06T01:23:30.931Z,99
2017-05-06T01:24:31.707Z,99
2017-05-06T01:25:32.485Z,99
2017-05-06T01:26:33.264Z,99
2017-05-06T01:27:34.036Z,99
2017-05-06T01:28:35.064Z,99
2017-05-06T01:29:35.841Z,99
2017-05-06T01:30:36.617Z,99
2017-05-06T01:31:37.393Z,99
2017-05-06T01:32:38.169Z,99
2017-05-06T01:33:39.194Z,99
2017-05-06T01:34:39.969Z,98
2017-05-06T01:35:40.746Z,99
2017-05-06T01:36:41.521Z,98
2017-05-06T01:37:42.294Z,98
2017-05-06T01:38:43.318Z,99
2017-05-06T01:39:44.095Z,99
2017-05-06T01:40:44.869Z,99
2017-05-06T01:41:45.644Z,98
2017-05-06T01:42:46.422Z,98
2017-05-06T01:43:47.450Z,98
2017-05-06T01:44:48.232Z,98
2017-05-06T01:45:49.004Z,98
2017-05-06T01:46:49.777Z,98
2017-05-06T01:47:50.555Z,98
2017-05-06T01:48:51.581Z,99
2017-05-06T01:49:52.357Z,98
2017-05-06T01:50:53.131Z,98
2017-05-06T01:51:53.905Z,98
2017-05-06T01:52:54.681Z,98
2017-05-06T01:53:55.704Z,98
2017-05-06T01:54:56.486Z,98
2017-05-06T01:55:57.260Z,99
2017-05-06T01:56:58.036Z,99
2017-05-06T01:57:58.810Z,99
2017-05-06T01:58:59.835Z,99
2017-05-06T02:00:00.610Z,99
2017-05-06T02:01:01.384Z,98
2017-05-06T02:02:02.161Z,99
2017-05-06T02:03:02.936Z,98
2017-05-06T02:04:03.960Z,99
2017-05-06T02:05:04.734Z,99
2017-05-06T02:06:05.508Z,99
2017-05-06T02:07:06.282Z,99
2017-05-06T02:08:07.059Z,99
2017-05-06T02:09:08.084Z,99
2017-05-06T02:10:08.856Z,99
2017-05-06T02:11:09.633Z,99
2017-05-06T02:12:10.402Z,99
2017-05-06T02:13:11.177Z,99
2017-05-06T02:14:12.203Z,99
2017-05-06T02:15:12.977Z,99
2017-05-06T02:16:13.751Z,99
2017-05-06T02:17:14.524Z,99
2017-05-06T02:18:15.299Z,99
2017-05-06T02:19:16.520Z,100
2017-05-06T02:20:17.296Z,100
2017-05-06T02:21:18.073Z,100
2017-05-06T02:22:18.851Z,100
2017-05-06T02:23:19.623Z,99
2017-05-06T02:24:20.647Z,99
2017-05-06T02:25:21.422Z,99
2017-05-06T02:26:22.198Z,99
2017-05-06T02:27:22.971Z,100
2017-05-06T02:28:23.745Z,99
2017-05-06T02:29:24.769Z,100
2017-05-06T02:30:25.543Z,100
2017-05-06T02:31:26.319Z,100
2017-05-06T02:32:27.093Z,100
2017-05-06T02:33:27.868Z,100
2017-05-06T02:34:28.894Z,100
2017-05-06T02:35:29.669Z,100
2017-05-06T02:36:30.635Z,100
2017-05-06T02:37:31.412Z,100
2017-05-06T02:38:32.189Z,100
2017-05-06T02:39:33.217Z,100
2017-05-06T02:40:33.991Z,100
2017-05-06T02:41:34.769Z,100
2017-05-06T02:42:35.543Z,100
2017-05-06T02:43:36.319Z,100
2017-05-06T02:44:37.343Z,100
2017-05-06T02:45:38.119Z,100
2017-05-06T02:46:38.897Z,100
2017-05-06T02:47:39.673Z,100
2017-05-06T02:48:40.455Z,100
2017-05-06T02:49:41.477Z,100
2017-05-06T02:50:42.255Z,100
2017-05-06T02:51:43.030Z,100
2017-05-06T02:52:43.803Z,100
2017-05-06T02:53:44.578Z,100
2017-05-06T02:54:45.606Z,100
2017-05-06T02:55:46.379Z,100
2017-05-06T02:56:47.156Z,100
2017-05-06T02:57:47.930Z,100
2017-05-06T02:58:48.703Z,100
2017-05-06T02:59:49.780Z,100
2017-05-06T03:00:50.551Z,100
2017-05-06T03:01:51.325Z,100
2017-05-06T03:02:52.101Z,100
2017-05-06T03:03:52.874Z,100
2017-05-06T03:04:53.947Z,100
2017-05-06T03:05:54.724Z,100
2017-05-06T03:06:55.704Z,100
2017-05-06T03:07:56.477Z,100
2017-05-06T03:08:57.251Z,100
2017-05-06T03:09:58.277Z,100
2017-05-06T03:10:59.052Z,100
2017-05-06T03:11:59.828Z,100
2017-05-06T03:13:00.602Z,100
2017-05-06T03:14:01.379Z,100
2017-05-06T03:15:02.406Z,100
2017-05-06T03:16:03.183Z,100
2017-05-06T03:17:03.957Z,100
2017-05-06T03:18:04.734Z,100
2017-05-06T03:19:05.506Z,100
2017-05-06T03:20:06.536Z,100
2017-05-06T03:21:07.311Z,100
2017-05-06T03:22:08.085Z,100
2017-05-06T03:23:08.862Z,100
2017-05-06T03:24:09.833Z,100
2017-05-06T03:25:10.859Z,100
2017-05-06T03:26:11.634Z,100
2017-05-06T03:27:12.408Z,100
2017-05-06T03:28:13.188Z,100
2017-05-06T03:29:13.963Z,100
2017-05-06T03:30:14.991Z,100
2017-05-06T03:31:15.770Z,100
2017-05-06T03:32:16.544Z,100
2017-05-06T03:33:17.322Z,100
2017-05-06T03:34:18.097Z,100
2017-05-06T03:35:19.120Z,100
2017-05-06T03:36:19.895Z,100
2017-05-06T03:37:20.674Z,100
2017-05-06T03:38:21.456Z,100
2017-05-06T03:39:22.230Z,100
2017-05-06T03:40:23.255Z,100
2017-05-06T03:41:24.035Z,100
2017-05-06T03:42:24.812Z,100
2017-05-06T03:43:25.593Z,100
2017-05-06T03:44:26.372Z,100
2017-05-06T03:45:27.550Z,100
2017-05-06T03:46:28.332Z,100
2017-05-06T03:47:29.107Z,100
2017-05-06T03:48:29.886Z,100
2017-05-06T03:49:30.661Z,100
2017-05-06T03:50:31.688Z,100
2017-05-06T03:51:32.469Z,100
2017-05-06T03:52:33.243Z,100
2017-05-06T03:53:34.020Z,100
2017-05-06T03:54:34.794Z,100
2017-05-06T03:55:35.821Z,100
2017-05-06T03:56:36.603Z,100
2017-05-06T03:57:37.378Z,100
2017-05-06T03:58:38.156Z,100
2017-05-06T03:59:38.935Z,100
2017-05-06T04:00:39.966Z,100
2017-05-06T04:01:40.743Z,100
2017-05-06T04:02:41.518Z,100
2017-05-06T04:03:42.295Z,100
2017-05-06T04:04:43.276Z,100
2017-05-06T04:05:44.401Z,100
2017-05-06T04:06:45.176Z,100
2017-05-06T04:07:45.967Z,100
2017-05-06T04:08:46.816Z,100
2017-05-06T04:09:47.639Z,100
2017-05-06T04:10:48.678Z,100
2017-05-06T04:11:49.455Z,100
2017-05-06T04:12:50.265Z,100
2017-05-06T04:13:51.098Z,100
2017-05-06T04:14:51.889Z,100
2017-05-06T04:15:52.945Z,100
2017-05-06T04:16:53.756Z,100
2017-05-06T04:17:54.573Z,100
2017-05-06T04:18:55.345Z,100
2017-05-06T04:19:56.117Z,100
2017-05-06T04:20:57.142Z,100
2017-05-06T04:21:57.913Z,100
2017-05-06T04:22:58.686Z,100
2017-05-06T04:23:59.455Z,100
2017-05-06T04:25:00.226Z,100
2017-05-06T04:26:01.250Z,100
2017-05-06T04:27:02.024Z,100
2017-05-06T04:28:02.827Z,100
2017-05-06T04:29:03.589Z,100
2017-05-06T04:30:04.377Z,100
2017-05-06T04:31:05.722Z,100
2017-05-06T04:32:06.493Z,100
2017-05-06T04:33:07.266Z,100
2017-05-06T04:34:08.035Z,100
2017-05-06T04:35:08.809Z,100
2017-05-06T04:36:09.832Z,100
2017-05-06T04:37:10.606Z,100
2017-05-06T04:38:11.381Z,100
2017-05-06T04:39:12.155Z,100
2017-05-06T04:40:12.928Z,100
2017-05-06T04:41:13.953Z,100
2017-05-06T04:42:14.726Z,100
2017-05-06T04:43:15.502Z,100
2017-05-06T04:44:16.274Z,100
2017-05-06T04:45:17.050Z,100
2017-05-06T04:46:18.078Z,100
2017-05-06T04:47:18.849Z,100
2017-05-06T04:48:19.622Z,100
2017-05-06T04:49:20.396Z,100
2017-05-06T04:50:21.177Z,100
2017-05-06T04:51:22.203Z,100
2017-05-06T04:52:22.977Z,100
2017-05-06T04:53:23.753Z,100
2017-05-06T04:54:24.525Z,100
2017-05-06T04:55:25.298Z,100
2017-05-06T04:56:26.325Z,100
2017-05-06T04:57:27.103Z,100
2017-05-06T04:58:27.877Z,100
2017-05-06T04:59:28.654Z,100
2017-05-06T05:00:29.425Z,100
2017-05-06T05:01:30.451Z,100
2017-05-06T05:02:31.223Z,100
2017-05-06T05:03:31.993Z,100
2017-05-06T05:04:32.766Z,100
2017-05-06T05:05:33.541Z,100
2017-05-06T05:06:34.567Z,100
2017-05-06T05:07:35.341Z,100
2017-05-06T05:08:36.118Z,100
2017-05-06T05:09:36.895Z,100
2017-05-06T05:10:37.672Z,100
2017-05-06T05:11:38.699Z,100
2017-05-06T05:12:39.471Z,100
2017-05-06T05:13:40.248Z,100
2017-05-06T05:14:41.021Z,100
2017-05-06T05:15:41.798Z,100
2017-05-06T05:16:42.821Z,100
2017-05-06T05:17:43.596Z,100
2017-05-06T05:18:44.368Z,100
2017-05-06T05:19:45.146Z,100
2017-05-06T05:20:45.919Z,100
2017-05-06T05:21:46.944Z,100
2017-05-06T05:22:47.722Z,100
2017-05-06T05:23:48.495Z,100
2017-05-06T05:24:49.267Z,100
2017-05-06T05:25:50.044Z,100
2017-05-06T05:26:51.092Z,100
2017-05-06T05:27:51.839Z,100
2017-05-06T05:28:52.615Z,100
2017-05-06T05:29:53.390Z,100
2017-05-06T05:30:54.165Z,100
2017-05-06T05:31:55.191Z,99
2017-05-06T05:32:55.961Z,100
2017-05-06T05:33:56.738Z,100
2017-05-06T05:34:57.514Z,100
2017-05-06T05:35:58.290Z,100
2017-05-06T05:36:59.316Z,100
2017-05-06T05:38:00.098Z,100
2017-05-06T05:39:00.875Z,100
2017-05-06T05:40:01.648Z,99
2017-05-06T05:41:02.424Z,100
2017-05-06T05:42:03.446Z,99
2017-05-06T05:43:04.219Z,99
2017-05-06T05:44:04.991Z,99
2017-05-06T05:45:05.768Z,99
2017-05-06T05:46:06.541Z,99
2017-05-06T05:47:07.568Z,99
2017-05-06T05:48:08.342Z,99
2017-05-06T05:49:09.120Z,99
2017-05-06T05:50:09.891Z,99
2017-05-06T05:51:10.667Z,98
2017-05-06T05:52:11.694Z,98
2017-05-06T05:53:12.470Z,98
2017-05-06T05:54:13.246Z,98
2017-05-06T05:55:14.020Z,98
2017-05-06T05:56:14.796Z,98
2017-05-06T05:57:15.820Z,98
2017-05-06T05:58:16.592Z,97
2017-05-06T05:59:17.366Z,98
2017-05-06T06:00:18.142Z,98
2017-05-06T06:01:18.918Z,98
2017-05-06T06:02:19.944Z,97
2017-05-06T06:03:20.735Z,97
2017-05-06T06:04:21.497Z,97
2017-05-06T06:05:22.272Z,97
2017-05-06T06:06:23.047Z,97
2017-05-06T06:07:24.576Z,96
2017-05-06T06:08:25.354Z,96
2017-05-06T06:09:26.126Z,96
2017-05-06T06:10:26.901Z,96
2017-05-06T06:11:27.678Z,96
2017-05-06T06:12:28.707Z,95
2017-05-06T06:13:29.483Z,94
2017-05-06T06:14:30.259Z,95
2017-05-06T06:15:31.037Z,95
2017-05-06T06:16:31.814Z,95
2017-05-06T06:17:32.839Z,94
2017-05-06T06:18:33.621Z,94
2017-05-06T06:19:34.392Z,93
2017-05-06T06:20:35.168Z,93
2017-05-06T06:21:35.945Z,93
2017-05-06T06:22:36.972Z,92
2017-05-06T06:23:37.753Z,92
2017-05-06T06:24:38.527Z,93
2017-05-06T06:25:39.304Z,92
2017-05-06T06:26:40.079Z,93
2017-05-06T06:27:41.110Z,92
2017-05-06T06:28:41.886Z,92
2017-05-06T06:29:42.666Z,92
2017-05-06T06:30:43.443Z,92
2017-05-06T06:31:44.218Z,92
2017-05-06T06:32:45.251Z,92
2017-05-06T06:34:28.666Z,92
2017-05-06T06:35:29.447Z,92
2017-05-06T06:36:30.226Z,92
2017-05-06T06:37:31.006Z,92
2017-05-06T06:38:32.033Z,92
2017-05-06T06:39:32.814Z,92
2017-05-06T06:40:33.593Z,92
2017-05-06T06:41:34.370Z,92
2017-05-06T06:42:35.150Z,92
2017-05-06T06:43:36.179Z,92
2017-05-06T06:44:36.959Z,92
2017-05-06T06:45:37.757Z,91
2017-05-06T06:46:38.515Z,91
2017-05-06T06:47:39.294Z,91
2017-05-06T06:48:40.322Z,90
2017-05-06T06:49:41.102Z,90
2017-05-06T06:50:41.880Z,90
2017-05-06T06:51:42.660Z,90
2017-05-06T06:52:43.440Z,89
2017-05-06T06:53:44.471Z,89
2017-05-06T06:54:45.249Z,88
2017-05-06T06:55:46.028Z,88
2017-05-06T06:56:46.807Z,88
2017-05-06T06:57:47.586Z,87
2017-05-06T06:58:48.618Z,87
2017-05-06T06:59:49.398Z,86
2017-05-06T07:00:50.179Z,86
2017-05-06T07:01:50.961Z,86
2017-05-06T07:02:51.742Z,86
2017-05-06T07:03:52.775Z,85
2017-05-06T07:04:53.558Z,85
2017-05-06T07:05:54.338Z,84
2017-05-06T07:06:55.122Z,84
2017-05-06T07:07:55.907Z,84
2017-05-06T07:08:56.940Z,84
2017-05-06T07:09:57.724Z,84
2017-05-06T07:10:58.507Z,83
2017-05-06T07:11:59.290Z,83
2017-05-06T07:13:00.075Z,82
2017-05-06T07:14:01.107Z,83
2017-05-06T07:15:01.889Z,83
2017-05-06T07:16:02.671Z,83
2017-05-06T07:17:03.455Z,81
2017-05-06T07:18:04.238Z,81
2017-05-06T07:19:05.273Z,82
2017-05-06T07:20:06.058Z,82
2017-05-06T07:21:06.841Z,81
2017-05-06T07:22:07.626Z,81
2017-05-06T07:23:08.410Z,81
2017-05-06T07:24:09.448Z,81
2017-05-06T07:25:10.227Z,79
2017-05-06T07:26:11.011Z,78
2017-05-06T07:27:11.795Z,79
2017-05-06T07:28:12.578Z,78
2017-05-06T07:29:13.614Z,78
2017-05-06T07:30:14.401Z,76
2017-05-06T07:31:15.185Z,77
2017-05-06T07:32:15.973Z,77
2017-05-06T07:33:16.758Z,77
2017-05-06T07:34:17.791Z,78
2017-05-06T07:35:18.577Z,79
2017-05-06T07:36:19.363Z,78
2017-05-06T07:37:20.149Z,77
2017-05-06T07:38:20.934Z,77
2017-05-06T07:39:21.971Z,77
2017-05-06T07:40:22.757Z,78
2017-05-06T07:41:23.553Z,78
2017-05-06T07:42:24.326Z,78
2017-05-06T07:43:25.110Z,79
2017-05-06T07:44:26.145Z,80
2017-05-06T07:45:26.932Z,80
2017-05-06T07:46:27.718Z,80
2017-05-06T07:47:28.502Z,80
2017-05-06T07:48:29.287Z,79
2017-05-06T07:49:30.322Z,79
2017-05-06T07:50:31.109Z,79
2017-05-06T07:51:31.894Z,78
2017-05-06T07:52:32.688Z,78
2017-05-06T07:53:33.526Z,76
2017-05-06T07:54:34.563Z,75
2017-05-06T07:55:35.351Z,75
2017-05-06T07:56:36.138Z,75
2017-05-06T07:57:36.926Z,74
2017-05-06T07:58:37.715Z,74
2017-05-06T07:59:38.754Z,74
2017-05-06T08:00:39.542Z,74
2017-05-06T08:01:40.329Z,74
2017-05-06T08:02:41.117Z,73
2017-05-06T08:03:41.905Z,72
2017-05-06T08:04:42.945Z,71
2017-05-06T08:05:43.735Z,70
2017-05-06T08:06:44.525Z,70
2017-05-06T08:07:45.316Z,70
2017-05-06T08:08:46.107Z,70
2017-05-06T08:09:47.146Z,70
2017-05-06T08:10:47.938Z,70
2017-05-06T08:11:48.723Z,68
2017-05-06T08:12:49.516Z,68
2017-05-06T08:13:50.309Z,67
2017-05-06T08:14:51.353Z,67
2017-05-06T08:15:52.145Z,67
2017-05-06T08:16:52.940Z,65
2017-05-06T08:17:53.731Z,65
2017-05-06T08:18:54.548Z,65
2017-05-06T08:19:55.568Z,65
2017-05-06T08:20:56.357Z,65
2017-05-06T08:21:57.149Z,65
2017-05-06T08:22:57.942Z,64
2017-05-06T08:23:58.736Z,64
2017-05-06T08:24:59.781Z,64
2017-05-06T08:26:00.575Z,63
2017-05-06T08:27:01.368Z,64
2017-05-06T08:28:02.159Z,65
2017-05-06T08:29:02.949Z,64
2017-05-06T08:30:03.993Z,65
2017-05-06T08:31:04.786Z,65
2017-05-06T08:32:05.579Z,65
2017-05-06T08:33:06.372Z,66
2017-05-06T08:34:07.166Z,66
2017-05-06T08:35:08.211Z,66
2017-05-06T08:36:09.001Z,66
2017-05-06T08:37:09.793Z,66
2017-05-06T08:38:10.586Z,65
2017-05-06T08:39:11.378Z,63
2017-05-06T08:40:12.424Z,63
2017-05-06T08:41:13.219Z,61
2017-05-06T08:42:14.020Z,60
2017-05-06T08:43:14.814Z,59
2017-05-06T08:44:15.613Z,61
2017-05-06T08:45:16.662Z,61
2017-05-06T08:46:17.456Z,60
2017-05-06T08:47:18.253Z,59
2017-05-06T08:48:19.049Z,59
2017-05-06T08:49:19.847Z,58
2017-05-06T08:50:20.891Z,58
2017-05-06T08:51:21.687Z,58
2017-05-06T08:52:22.480Z,58
2017-05-06T08:53:23.272Z,59
2017-05-06T08:54:24.066Z,59
2017-05-06T08:55:25.108Z,58
2017-05-06T08:56:25.904Z,58
2017-05-06T08:57:26.699Z,59
2017-05-06T08:58:27.493Z,60
2017-05-06T08:59:28.285Z,61
2017-05-06T09:00:29.327Z,60
2017-05-06T09:01:30.120Z,59
2017-05-06T09:02:30.915Z,57
2017-05-06T09:03:31.711Z,57
2017-05-06T09:04:32.504Z,57
2017-05-06T09:05:33.547Z,57
2017-05-06T09:06:34.338Z,57
2017-05-06T09:07:35.135Z,56
2017-05-06T09:08:35.929Z,56
2017-05-06T09:09:36.723Z,54
2017-05-06T09:10:37.956Z,55
2017-05-06T09:11:38.749Z,54
2017-05-06T09:12:39.545Z,54
2017-05-06T09:13:40.340Z,53
2017-05-06T09:14:41.137Z,53
2017-05-06T09:15:42.180Z,52
2017-05-06T09:16:42.978Z,52
2017-05-06T09:17:43.769Z,51
2017-05-06T09:18:44.564Z,51
2017-05-06T09:19:45.357Z,51
2017-05-06T09:20:46.404Z,52
2017-05-06T09:21:47.201Z,52
2017-05-06T09:22:47.996Z,52
2017-05-06T09:23:48.791Z,52
2017-05-06T09:24:49.586Z,51
2017-05-06T09:25:50.632Z,50
2017-05-06T09:26:51.431Z,50
2017-05-06T09:27:52.229Z,51
2017-05-06T09:28:53.236Z,49
2017-05-06T09:29:54.016Z,48
2017-05-06T09:30:55.064Z,50
2017-05-06T09:31:55.860Z,50
2017-05-06T09:32:56.655Z,48
2017-05-06T09:33:57.451Z,48
2017-05-06T09:34:58.251Z,48
2017-05-06T09:35:59.303Z,48
2017-05-06T09:37:00.101Z,48
2017-05-06T09:38:00.900Z,48
2017-05-06T09:39:01.698Z,48
2017-05-06T09:40:02.497Z,47
2017-05-06T09:41:03.544Z,47
2017-05-06T09:42:04.340Z,47
2017-05-06T09:43:05.138Z,48
2017-05-06T09:44:05.930Z,48
2017-05-06T09:45:06.725Z,47
2017-05-06T09:46:07.778Z,47
2017-05-06T09:47:08.573Z,47
2017-05-06T09:48:09.370Z,48
2017-05-06T09:49:10.165Z,47
2017-05-06T09:50:10.962Z,46
2017-05-06T09:51:12.009Z,46
2017-05-06T09:52:12.807Z,46
2017-05-06T09:53:13.606Z,46
2017-05-06T09:54:14.401Z,47
2017-05-06T09:55:15.201Z,47
2017-05-06T09:56:16.248Z,46
2017-05-06T09:57:17.043Z,46
2017-05-06T09:58:17.838Z,46
2017-05-06T09:59:18.638Z,46
2017-05-06T10:00:19.434Z,45
2017-05-06T10:01:20.486Z,45
2017-05-06T10:02:21.282Z,45
2017-05-06T10:03:22.082Z,45
2017-05-06T10:04:22.885Z,46
2017-05-06T10:05:23.686Z,46
2017-05-06T10:06:24.736Z,47
2017-05-06T10:07:25.544Z,47
2017-05-06T10:08:26.341Z,46
2017-05-06T10:09:27.147Z,46
2017-05-06T10:10:27.945Z,47
2017-05-06T10:11:29.000Z,46
2017-05-06T10:12:29.805Z,46
2017-05-06T10:13:30.605Z,45
2017-05-06T10:14:31.406Z,45
2017-05-06T10:15:32.210Z,45
2017-05-06T10:16:33.256Z,45
2017-05-06T10:17:34.054Z,45
2017-05-06T10:18:34.851Z,44
2017-05-06T10:19:35.654Z,44
2017-05-06T10:20:36.451Z,45
2017-05-06T10:21:37.501Z,44
2017-05-06T10:22:38.304Z,44
2017-05-06T10:23:39.106Z,45
2017-05-06T10:24:39.905Z,45
2017-05-06T10:25:40.703Z,45
2017-05-06T10:26:41.756Z,43
2017-05-06T10:27:42.558Z,43
2017-05-06T10:28:43.363Z,42
2017-05-06T10:29:44.164Z,44
2017-05-06T10:30:44.972Z,42
2017-05-06T10:31:46.030Z,42
2017-05-06T10:32:46.833Z,41
2017-05-06T10:33:47.646Z,42
2017-05-06T10:34:48.444Z,43
2017-05-06T10:35:49.247Z,45
2017-05-06T10:36:50.303Z,45
2017-05-06T10:37:51.108Z,45
2017-05-06T10:38:51.914Z,45
2017-05-06T10:39:52.722Z,44
2017-05-06T10:40:53.529Z,44
2017-05-06T10:41:54.582Z,45
2017-05-06T10:42:55.386Z,44
2017-05-06T10:43:56.182Z,43
2017-05-06T10:44:56.979Z,44
2017-05-06T10:45:57.778Z,44
2017-05-06T10:46:58.828Z,42
2017-05-06T10:47:59.628Z,41
2017-05-06T10:49:00.430Z,41
2017-05-06T10:50:01.230Z,39
2017-05-06T10:51:02.037Z,40
2017-05-06T10:52:03.093Z,40
2017-05-06T10:53:03.886Z,40
2017-05-06T10:54:04.685Z,41
2017-05-06T10:55:05.480Z,40
2017-05-06T10:56:06.276Z,40
2017-05-06T10:57:07.322Z,41
2017-05-06T10:58:08.117Z,42
2017-05-06T10:59:08.913Z,42
2017-05-06T11:00:09.711Z,42
2017-05-06T11:01:10.507Z,42
2017-05-06T11:02:11.549Z,41
2017-05-06T11:03:12.343Z,40
2017-05-06T11:04:13.140Z,40
2017-05-06T11:05:13.935Z,41
2017-05-06T11:06:14.736Z,42
2017-05-06T11:07:15.791Z,43
2017-05-06T11:08:16.709Z,42
2017-05-06T11:09:17.514Z,42
2017-05-06T11:10:18.374Z,42
2017-05-06T11:11:19.222Z,42
2017-05-06T11:12:20.264Z,41
2017-05-06T11:13:21.056Z,41
2017-05-06T11:14:21.849Z,43
2017-05-06T11:15:22.644Z,45
2017-05-06T11:16:23.535Z,45
2017-05-06T11:17:24.570Z,45
2017-05-06T11:18:25.360Z,46
2017-05-06T11:19:26.152Z,46
2017-05-06T11:20:27.132Z,45
2017-05-06T11:21:27.920Z,44
2017-05-06T11:22:28.963Z,44
2017-05-06T11:23:29.753Z,44
2017-05-06T11:24:30.551Z,45
2017-05-06T11:25:31.342Z,46
2017-05-06T11:26:32.136Z,46
2017-05-06T11:27:33.179Z,46
2017-05-06T11:28:33.966Z,46
2017-05-06T11:29:34.754Z,45
2017-05-06T11:30:35.545Z,45
2017-05-06T11:31:36.347Z,44
2017-05-06T11:32:37.390Z,44
2017-05-06T11:33:38.179Z,44
2017-05-06T11:34:38.971Z,44
2017-05-06T11:35:39.765Z,44
2017-05-06T11:36:40.554Z,44
2017-05-06T11:37:41.645Z,44
2017-05-06T11:38:42.437Z,44
2017-05-06T11:39:43.226Z,44
2017-05-06T11:40:44.204Z,43
2017-05-06T11:41:44.996Z,42
2017-05-06T11:42:46.042Z,41
2017-05-06T11:43:46.832Z,40
2017-05-06T11:44:47.625Z,40
2017-05-06T11:45:48.421Z,39
2017-05-06T11:46:49.219Z,39
2017-05-06T11:47:50.376Z,38
2017-05-06T11:48:51.186Z,38
2017-05-06T11:49:52.072Z,38
2017-05-06T11:50:52.876Z,38
2017-05-06T11:51:53.672Z,38
2017-05-06T11:52:54.714Z,39
2017-05-06T11:53:55.512Z,39
2017-05-06T11:54:56.358Z,38
2017-05-06T11:55:57.200Z,38
2017-05-06T11:56:58.000Z,37
2017-05-06T11:57:59.050Z,37
2017-05-06T11:58:59.847Z,37
2017-05-06T12:00:00.680Z,37
2017-05-06T12:01:01.592Z,36
2017-05-06T12:02:02.448Z,36
2017-05-06T12:03:03.496Z,36
2017-05-06T12:04:04.310Z,36
2017-05-06T12:05:05.164Z,36
2017-05-06T12:06:05.985Z,36
2017-05-06T12:07:06.813Z,34
2017-05-06T12:08:07.874Z,34
2017-05-06T12:09:08.672Z,35
2017-05-06T12:10:09.470Z,34
2017-05-06T12:11:10.308Z,35
2017-05-06T12:12:11.107Z,35
2017-05-06T12:13:12.158Z,36
2017-05-06T12:14:12.948Z,36
2017-05-06T12:15:13.750Z,34
2017-05-06T12:16:14.547Z,34
2017-05-06T12:17:15.411Z,34
2017-05-06T12:18:16.593Z,34
2017-05-06T12:19:17.488Z,35
2017-05-06T12:20:18.282Z,35
2017-05-06T12:21:19.076Z,36
2017-05-06T12:22:19.871Z,37
2017-05-06T12:23:21.071Z,36
2017-05-06T12:24:21.877Z,36
2017-05-06T12:25:22.674Z,34
2017-05-06T12:26:23.473Z,33
2017-05-06T12:27:24.308Z,33
2017-05-06T12:28:25.439Z,32
2017-05-06T12:29:26.295Z,32
2017-05-06T12:30:27.116Z,33
2017-05-06T12:31:27.919Z,33
2017-05-06T12:32:28.720Z,33
2017-05-06T12:33:29.787Z,33
2017-05-06T12:34:30.584Z,35
2017-05-06T12:35:31.436Z,36
2017-05-06T12:36:32.193Z,37
2017-05-06T12:37:32.990Z,37
2017-05-06T12:38:34.124Z,38
2017-05-06T12:39:34.917Z,38
2017-05-06T12:40:35.777Z,36
2017-05-06T12:41:36.567Z,35
2017-05-06T12:42:37.370Z,35
2017-05-06T12:43:38.527Z,33
2017-05-06T12:44:39.326Z,34
2017-05-06T12:45:40.139Z,36
2017-05-06T12:46:40.933Z,37
2017-05-06T12:47:41.728Z,36
2017-05-06T12:48:42.883Z,35
2017-05-06T12:49:43.697Z,35
2017-05-06T12:50:44.496Z,35
2017-05-06T12:51:45.288Z,33
2017-05-06T12:52:46.142Z,34
2017-05-06T12:53:47.240Z,35
2017-05-06T12:54:48.062Z,37
2017-05-06T12:55:48.872Z,37
2017-05-06T12:56:49.856Z,37
2017-05-06T12:57:50.642Z,37
2017-05-06T12:58:51.683Z,36
2017-05-06T12:59:52.476Z,35
2017-05-06T13:00:53.272Z,34
2017-05-06T13:01:54.125Z,34
2017-05-06T13:02:54.922Z,34
2017-05-06T13:03:55.968Z,35
2017-05-06T13:04:56.763Z,34
2017-05-06T13:05:57.562Z,33
2017-05-06T13:06:58.354Z,32
2017-05-06T13:07:59.150Z,33
2017-05-06T13:09:00.201Z,31
2017-05-06T13:10:00.998Z,31
2017-05-06T13:11:01.789Z,31
2017-05-06T13:12:02.587Z,31
2017-05-06T13:13:03.384Z,30
2017-05-06T13:14:04.431Z,30
2017-05-06T13:15:05.228Z,29
2017-05-06T13:16:06.022Z,29
2017-05-06T13:17:06.822Z,31
2017-05-06T13:18:07.614Z,32
2017-05-06T13:19:08.662Z,31
2017-05-06T13:20:09.461Z,32
2017-05-06T13:21:10.257Z,32
2017-05-06T13:22:11.050Z,31
2017-05-06T13:23:11.847Z,32
2017-05-06T13:24:12.891Z,33
2017-05-06T13:25:13.686Z,33
2017-05-06T13:26:14.480Z,32
2017-05-06T13:27:15.279Z,32
2017-05-06T13:28:16.071Z,31
2017-05-06T13:29:17.116Z,31
2017-05-06T13:30:17.911Z,31
2017-05-06T13:31:18.707Z,30
2017-05-06T13:32:19.502Z,31
2017-05-06T13:33:20.300Z,31
2017-05-06T13:34:21.346Z,32
2017-05-06T13:35:22.138Z,32
2017-05-06T13:36:22.935Z,33
2017-05-06T13:37:23.741Z,33
2017-05-06T13:38:24.535Z,33
2017-05-06T13:39:25.578Z,33
2017-05-06T13:40:26.366Z,33
2017-05-06T13:41:27.159Z,33
2017-05-06T13:42:27.953Z,32
2017-05-06T13:43:28.747Z,32
2017-05-06T13:44:29.793Z,32
2017-05-06T13:45:30.588Z,33
2017-05-06T13:46:31.380Z,33
2017-05-06T13:47:32.173Z,33
2017-05-06T13:48:32.967Z,32
2017-05-06T13:49:34.009Z,32
2017-05-06T13:50:34.802Z,33
2017-05-06T13:51:35.595Z,32
2017-05-06T13:52:36.389Z,31
2017-05-06T13:53:37.181Z,31
2017-05-06T13:54:38.222Z,32
2017-05-06T13:55:39.016Z,32
2017-05-06T13:56:39.805Z,32
2017-05-06T13:57:40.600Z,33
2017-05-06T13:58:41.392Z,33
2017-05-06T13:59:42.436Z,33
2017-05-06T14:00:43.229Z,33
2017-05-06T14:01:44.021Z,34
2017-05-06T14:02:44.817Z,35
2017-05-06T14:03:45.574Z,34
2017-05-06T14:04:46.622Z,35
2017-05-06T14:05:47.416Z,34
2017-05-06T14:06:48.236Z,33
2017-05-06T14:07:49.005Z,32
2017-05-06T14:08:49.797Z,31
2017-05-06T14:09:50.841Z,31
2017-05-06T14:10:51.633Z,31
2017-05-06T14:11:52.429Z,32
2017-05-06T14:12:53.221Z,32
2017-05-06T14:13:54.014Z,31
2017-05-06T14:14:55.056Z,31
2017-05-06T14:15:55.849Z,31
2017-05-06T14:16:56.639Z,31
2017-05-06T14:17:57.432Z,32
2017-05-06T14:18:58.222Z,32